臺北終端管制區 - 桃園北區雷達席

METAR RCTP 240800Z 02012KT 3500 -RA BR SCT003 BKN006 BKN016 24/23 Q1011 NOSIG RMK A2986 RA AMT 1.0MM(N)=

站台狀態:Offline
最後更新:2020-09-24 16:00:02